Terminal Aerodrome Forecast
Issued by NWS

Home | Current Version | Previous Version | Text Only | Print | Product List | Glossary On
Versions: 1 2 3 4 5 6 7 8 9 10 11 12 13 14 15
000
FTUS46 KOTX 232339
TAFMWH
TAF
KMWH 232339Z 2400/2424 11005KT 6SM -RA BR BKN024 OVC030
     FM240300 13006KT 5SM -RA BR SCT006 OVC014
     FM240700 14006KT P6SM VCSH SCT008 OVC020
     FM241700 15007KT P6SM -RA SCT020 OVC040=

USA.gov is the U.S. government's official web portal to all federal, state and local government web resources and services.